Extreme weather reports worldwide

High gusts

Station
 
Location
 
Name
 
Wind
Knots
Gust
Knots
Vis
SM
Temp/Dew
C
Baro
inHg
METAR
 
GOG FYGB Gobabis, NA Gobabis Airport 30 44 12/0 30.32 FYGB 172000Z AUTO 22030G44KT //// // ////// 12/M00 Q1027
KMWN 31 38 99 6/0 KMWN 171955Z 30031G38KT 130SM SCT008 SCT180 SCT220 06/00 RMK
MSA CZMD Muskrat Dam, CA Muskrat Dam Airport 23 37 9 23/5 29.38 CZMD 172000Z AUTO 25023G37KT 9SM BKN096 BKN110 BKN170 23/05 A2938 RMK SLP954 DENSITY ALT 2700FT
YQV CYQV Yorkton, CA Yorkton Municipal Airport 30 36 9 24/2 29.75 CYQV 172000Z AUTO 28030G36KT 9SM SCT091 24/02 A2975 RMK SLP079 DENSITY ALT 3300FT
CWRJ 23 35 22/0 CWRJ 172000Z AUTO 28023G35KT 23/M00 RMK AO1 PK WND 28044/1939 SLP111 T02281004 57010

Station
 
Location
 
Name
 
Wind
Knots
Gust
Knots
Vis
SM
Temp/Dew
C
Baro
inHg
METAR
 
YKY CYKY Kindersley, CA Kindersley Airport 25 34 15 22/0 29.87 CYKY 172000Z 27025G34KT 15SM FEW065 22/00 A2987 RMK CU1 SLP120 DENSITY ALT 3800FT
YPL CYPL Pickle Lake, CA Pickle Lake Airport 20 34 9 26/3 29.54 CYPL 172000Z AUTO 27020G34KT 9SM FEW120 26/03 A2954 RMK SLP002 DENSITY ALT 3300FT
ZSJ CZSJ Sandy Lake, CA Sandy Lake Airport 23 34 9 23/4 29.46 CZSJ 172000Z AUTO 29023G34KT 240V300 9SM SCT091 SCT110 BKN190 23/04 A2946 RMK SLP979 DENSITY ALT 2600FT
GYD UBBB Baku, AZ Heydar Aliyev International Airport 22 34 6.21 28/19 29.79 UBBB 172000Z 32022G34KT CAVOK 28/19 Q1009 R88/CLRD// NOSIG
RWL KRWL Rawlins, US Rawlins Municipal Airport/Harvey Field 25 33 10 32/-6 30.19 KRWL 171953Z AUTO 24025G33KT 10SM CLR 32/M07 A3019 RMK AO2 PK WND 24035/1923 RAB04E49 SLP105 P0000 T03221067
YDN CYDN Dauphin, CA Dauphin Barker Airport 25 33 9 26/3 29.67 CYDN 172000Z AUTO 29025G33KT 9SM CLR 26/03 A2967 RMK SLP049 DENSITY ALT 2800FT
YXE CYXE Saskatoon, CA Saskatoon John G. Diefenbaker International Airport 24 33 15 20/6 29.79 CYXE 172000Z 29024G33KT 15SM BKN070 20/06 A2979 RMK CU5 SLP099 DENSITY ALT 2800FT
CIN KCIN Carroll, US Arthur N Neu Airport 22 33 9 38/17 29.76 KCIN 172015Z AUTO 23022G33KT 9SM CLR 38/17 A2976 RMK AO2
CTB KCTB Cut Bank, US Cut Bank International Airport 18 32 10 23/-2 30.03 KCTB 171956Z AUTO 25018G32KT 10SM CLR 23/M03 A3003 RMK AO2 PK WND 27032/1948 SLP146 T02331028
CWGY 23 32 21/2 CWGY 172000Z AUTO 26023G32KT 21/02 RMK AO1 PK WND 25034/1935 SLP134 T02140023 56004
YBR CYBR Brandon, CA Brandon Municipal Airport 21 32 15 26/7 29.76 CYBR 172000Z 28021G32KT 15SM FEW060 26/07 A2976 RMK CU1 SLP084 DENSITY ALT 3100FT
YEN CYEN Estevan, CA Estevan Airport 17 32 9 25/3 29.87 CYEN 172000Z AUTO 29017G32KT 9SM CLR 25/03 A2987 RMK SLP118 DENSITY ALT 3600FT
DOH OTHH Doha, QA Hamad International Airport 21 32 1.12 35/11 29.47 OTHH 172000Z 32021G32KT 1800 BLDU NSC 35/11 Q0998 NOSIG
CZVL Edmonton, CA Edmonton / Villeneuve Airport 18 32 9 12/8 29.93 CZVL 172006Z AUTO 29018G32KT 9SM -RA FEW028 OVC060 12/08 A2993 RMK SLP146 DENSITY ALT 2500FT
KXWA 11 31 10 26/0 29.92 KXWA 171951Z AUTO 29011G31KT 10SM CLR 27/01 A2992 RMK AO2 PK WND 30031/1943 SLP129 T02670006
KTQE Tekamah, US Tekamah Municipal Airport 21 31 10 39/17 29.75 KTQE 171954Z AUTO 21021G31KT 10SM CLR 39/18 A2975 RMK AO2 PK WND 18033/1942 SLP055 T03940178
CWIW 22 31 21/1 CWIW 172000Z AUTO 29022G31KT 22/02 RMK AO1 PK WND 26039/1939 SLP094 T02170015 58009
CWLE 22 31 23/-1 CWLE 172000Z AUTO 29022G31KT 24/M02 RMK AO1 PK WND 31032/1947 SLP121 T02361015 58010
YRB CYRB Resolute Bay, CA Resolute Bay Airport 25 31 25 1/0 29.60 CYRB 172000Z 11025G31KT 25SM OVC019 01/M00 A2960 RMK SC8 SLP031
NDJ FTTJ N'Djamena, TD N'Djamena International Airport 21 31 1.55 23/22 29.97 FTTJ 172000Z 06021G31KT 2500 TSRA BKN026 SCT040CB 23/22 Q1015 NOSIG
IWO RJAW JP Iwo Jima Airport 19 31 6.21 26/24 29.62 RJAW 172000Z 22019G31KT 9999 FEW010 BKN015 BKN100 26/24 Q1003 RMK 1CU010 6CU015 7AC100 A2964
KCAV Clarion, US Clarion Municipal Airport 22 31 10 37/11 29.76 KCAV 172015Z AUTO 23022G31KT 10SM CLR 37/11 A2976 RMK A01
YTL CYTL Big Trout Lake, CA Big Trout Lake Airport 18 31 7 19/10 29.37 CYTL 172019Z AUTO 28018G31KT 240V310 7SM -RA SCT086 19/10 A2937 RMK PRESRR SLP950 DENSITY ALT 2000FT
KALK 19 30 10 36/-1 30.06 KALK 171956Z AUTO 12019G30KT 10SM CLR 37/M02 A3006 RMK AO2 PK WND 07034/1946 SLP066 T03671017
CWDJ 18 30 23/0 CWDJ 172000Z AUTO 28018G30KT 24/M01 RMK AO1 PK WND 28031/1911 SLP114 T02371007 58007
CWEQ 21 30 22/3 CWEQ 172000Z AUTO 27021G30KT 23/03 RMK AO1 PK WND 28034/1933 SLP047 T02270031 56009
CWRH 17 30 -3/-3 29.64 CWRH 172000Z AUTO VRB17G30KT ////SM NCD M03/M03 A2964
YYN CYYN Swift Current, CA Swift Current Airport 16 30 9 22/-2 29.91 CYYN 172000Z AUTO 29016G30KT 9SM CLR 22/M02 A2991 RMK SLP125 DENSITY ALT 4200FT
KHNR Harlan, US Harlan Municipal Airport 17 30 10 38/15 29.77 KHNR 172015Z AUTO 22017G30KT 10SM CLR 38/15 A2977 RMK A01
MLX LTAT Malatya, TR Malatya Erhaç Airport 18 29 6.21 23/5 29.97 LTAT 171950Z 31018G29KT CAVOK 23/05 Q1015 BECMG TL2100 VRB02KT
GCK KGCK Garden City, US Garden City Regional Airport 21 29 10 37/8 29.92 KGCK 171954Z 19021G29KT 10SM CLR 38/08 A2992 RMK AO2 PK WND 19029/1949 SLP088 T03780083
LNK KLNK Lincoln, US Lincoln Airport 19 29 10 38/17 29.78 KLNK 171954Z 19019G29KT 10SM CLR 38/18 A2978 RMK AO2 PK WND 21031/1938 SLP068 T03830178
MOT KMOT Minot, US Minot International Airport 20 29 10 28/0 29.85 KMOT 171954Z 28020G29KT 10SM CLR 29/M01 A2985 RMK AO2 PK WND 28030/1904 SLP103 T02891006
RKS KRKS Rock Springs, US Southwest Wyoming Regional Airport 21 29 10 32/-7 30.20 KRKS 171954Z AUTO 27021G29KT 10SM CLR 33/M08 A3020 RMK AO2 PK WND 26029/1953 SLP117 T03281078
FOD KFOD Fort Dodge, US Fort Dodge Regional Airport 21 29 10 36/13 29.77 KFOD 171956Z AUTO 23021G29KT 10SM CLR 37/13 A2977 RMK AO2 PK WND 21032/1907 LTG DSNT NW-NE SLP094 T03670133
CWCT 19 29 19/2 CWCT 172000Z AUTO 30019G29KT 19/02 RMK AO1 PK WND 30029/2000 SLP141 T01930023 58006
CWIK 17 29 23/1 CWIK 172000Z AUTO 29017G29KT 23/01 RMK AO1 PK WND 30029/1956 SLP105 T02310013 55000
YEG CYEG Edmonton, CA Edmonton International Airport 20 29 20 14/6 29.95 CYEG 172000Z 29020G29KT 20SM SCT035 BKN043 OVC070 14/06 A2995 RMK CF3SC3AS2 SLP153 DENSITY ALT 2800FT
YLL CYLL Lloydminster, CA Lloydminster Airport 19 29 15 12/9 29.84 CYLL 172000Z 28019G29KT 15SM BKN021 OVC041 12/09 A2984 RMK SC6SC2 SLP118 DENSITY ALT 2500FT
YPO CYPO Peawanuck, CA Peawanuck Airport 16 29 9 26/9 29.30 CYPO 172000Z AUTO 28016G29KT 9SM FEW076 26/09 A2930 RMK SLP922 DENSITY ALT 2200FT
YYT CYYT St. John's, CA St. John's International Airport 22 29 15 19/14 29.81 CYYT 172000Z 27022G29KT 15SM FEW020 BKN130 19/14 A2981 RMK SC1AC5 SLP096 DENSITY ALT 1200FT
YYU CYYU Kapuskasing, CA Kapuskasing Airport 19 29 15 27/14 29.59 CYYU 172000Z 21019G29KT 15SM VCSH FEW040TCU BKN074 27/14 A2959 RMK TCU2AC4 SH NE AND SE QUADS PRESFR SLP023 DENSITY ALT 2700FT
YZU CYZU Whitecourt, CA Whitecourt Airport 20 29 15 12/7 29.99 CYZU 172000Z 31020G29KT 15SM -RA OVC026 12/07 A2999 RMK SC8 SLP169 DENSITY ALT 2800FT
K06D 20 29 10 27/1 29.82 K06D 172015Z AUTO 27020G29KT 10SM CLR 27/01 A2982 RMK AO2
K08D 13 29 10 27/3 29.90 K08D 172015Z AUTO 28013G29KT 240V310 10SM CLR 27/03 A2990 RMK AO2